Time;durP1;ratioP1;P1;durP2;ratioP2;P2;SDS_P1;SDS_P2;PMS_P1;PMS_P2;Temp;Humidity;BMP_temperature;BMP_pressure;BME280_temperature;BME280_humidity;BME280_pressure;Samples;Min_cycle;Max_cycle;Signal;HPM_P1;HPM_P2
2023/01/25 00:00:08;;;;;;;40.63;23.92;;;2.50;99.90;;;;;;5058891;28;20033;-50
2023/01/25 00:02:54;;;;;;;39.92;23.35;;;2.50;99.90;;;;;;5073048;28;20039;-54
2023/01/25 00:05:40;;;;;;;44.20;23.75;;;2.40;99.90;;;;;;5073752;28;20502;-55
2023/01/25 00:08:26;;;;;;;37.70;22.40;;;2.40;99.90;;;;;;5061934;28;20035;-50
2023/01/25 00:11:12;;;;;;;38.55;21.33;;;2.40;99.90;;;;;;5078729;28;20033;-56
2023/01/25 00:13:58;;;;;;;40.90;22.98;;;2.50;99.90;;;;;;5073641;28;20033;-52
2023/01/25 00:16:44;;;;;;;37.28;21.80;;;2.50;99.90;;;;;;5071560;28;20058;-50
2023/01/25 00:19:30;;;;;;;37.88;19.45;;;2.50;99.90;;;;;;5071261;28;20033;-49
2023/01/25 00:22:16;;;;;;;38.97;20.98;;;2.50;99.90;;;;;;5074971;28;20051;-53
2023/01/25 00:25:02;;;;;;;34.85;20.65;;;2.40;99.90;;;;;;5066526;28;20029;-48
2023/01/25 00:27:48;;;;;;;38.00;21.55;;;2.40;99.90;;;;;;5072966;28;20128;-51
2023/01/25 00:30:34;;;;;;;36.67;21.83;;;2.40;99.90;;;;;;5075636;28;20035;-57
2023/01/25 00:33:43;;;;;;;38.38;22.38;;;2.40;99.90;;;;;;5076936;28;20031;-51
2023/01/25 00:36:36;;;;;;;40.08;21.90;;;2.40;99.90;;;;;;5063963;28;20019;-52
2023/01/25 00:39:23;;;;;;;37.97;20.88;;;2.40;99.90;;;;;;5071973;28;20062;-55
2023/01/25 00:42:10;;;;;;;35.45;20.25;;;2.40;99.90;;;;;;5073222;28;20486;-55
2023/01/25 00:44:56;;;;;;;38.45;22.15;;;2.50;99.90;;;;;;5070113;28;20493;-53
2023/01/25 00:47:42;;;;;;;38.88;21.15;;;2.50;99.90;;;;;;5080287;28;20431;-53
2023/01/25 00:50:28;;;;;;;36.90;21.05;;;2.50;99.90;;;;;;5080879;28;20033;-49
2023/01/25 00:53:14;;;;;;;40.42;21.83;;;2.60;99.90;;;;;;5076846;28;20032;-50
2023/01/25 00:56:00;;;;;;;35.42;21.83;;;2.60;99.90;;;;;;5057377;28;20126;-52
2023/01/25 00:58:46;;;;;;;43.58;21.80;;;2.70;99.90;;;;;;5062494;28;20322;-51
2023/01/25 01:01:33;;;;;;;38.38;21.33;;;2.60;99.90;;;;;;5077289;28;20417;-54
2023/01/25 01:04:23;;;;;;;35.58;20.73;;;2.60;99.90;;;;;;5076496;28;20024;-54
2023/01/25 01:07:12;;;;;;;37.08;21.20;;;2.50;99.90;;;;;;5077091;28;20103;-53
2023/01/25 01:09:59;;;;;;;36.75;20.77;;;2.40;99.90;;;;;;5076356;28;20030;-57
2023/01/25 01:12:45;;;;;;;35.38;20.10;;;2.30;99.90;;;;;;5075492;28;20036;-54
2023/01/25 01:15:30;;;;;;;35.08;19.70;;;2.40;99.90;;;;;;5057046;28;20731;-53
2023/01/25 01:18:16;;;;;;;38.80;20.80;;;2.30;99.90;;;;;;5070785;28;20090;-58
2023/01/25 01:21:03;;;;;;;42.83;22.40;;;2.20;99.90;;;;;;5058670;28;20437;-58
2023/01/25 01:23:49;;;;;;;36.42;21.17;;;2.20;99.90;;;;;;5071097;28;20025;-58
2023/01/25 01:26:35;;;;;;;41.65;21.55;;;2.20;99.90;;;;;;5070875;28;20519;-56
2023/01/25 01:29:21;;;;;;;34.63;20.00;;;2.20;99.90;;;;;;5070209;28;20025;-56
2023/01/25 01:32:07;;;;;;;37.33;20.60;;;2.20;99.90;;;;;;5071971;28;20025;-59
2023/01/25 01:34:53;;;;;;;39.30;21.58;;;2.20;99.90;;;;;;5069827;28;20036;-55
2023/01/25 01:37:41;;;;;;;37.08;20.27;;;2.30;99.90;;;;;;5071771;28;20119;-57
2023/01/25 01:40:27;;;;;;;37.35;21.20;;;2.40;99.90;;;;;;5071629;28;20381;-56
2023/01/25 01:43:22;;;;;;;36.15;21.08;;;2.40;99.90;;;;;;5057192;28;20028;-57
2023/01/25 01:46:31;;;;;;;38.90;21.33;;;2.40;99.90;;;;;;5070492;28;20060;-55
2023/01/25 01:49:26;;;;;;;39.83;21.88;;;2.40;99.90;;;;;;5071112;28;20033;-54
2023/01/25 01:52:16;;;;;;;36.60;20.17;;;2.40;99.90;;;;;;5057181;28;20031;-57
2023/01/25 01:55:07;;;;;;;40.22;21.77;;;2.40;99.90;;;;;;5070783;28;20047;-57
2023/01/25 01:57:57;;;;;;;41.85;22.38;;;2.50;99.90;;;;;;5070629;28;20036;-55
2023/01/25 02:00:43;;;;;;;45.85;23.80;;;2.40;99.90;;;;;;5069337;28;20102;-59
2023/01/25 02:03:30;;;;;;;43.55;24.42;;;2.40;99.90;;;;;;5071895;28;20497;-59
2023/01/25 02:06:43;;;;;;;42.25;23.23;;;2.40;99.90;;;;;;5070509;28;20087;-60
2023/01/25 02:09:31;;;;;;;40.15;22.80;;;2.50;99.90;;;;;;5052477;28;20064;-60
2023/01/25 02:12:19;;;;;;;37.35;21.45;;;2.50;99.90;;;;;;5064310;28;20066;-56
2023/01/25 02:15:06;;;;;;;41.97;23.02;;;2.50;99.90;;;;;;5070191;28;20020;-55
2023/01/25 02:17:53;;;;;;;51.05;25.33;;;2.50;99.90;;;;;;5069604;28;20131;-53
2023/01/25 02:20:45;;;;;;;44.78;25.52;;;2.50;99.90;;;;;;5072917;28;20515;-55
2023/01/25 02:23:51;;;;;;;44.63;25.33;;;2.50;99.90;;;;;;5070946;28;20098;-55
2023/01/25 02:26:38;;;;;;;45.95;24.42;;;2.50;99.90;;;;;;5070470;28;20082;-52
2023/01/25 02:29:26;;;;;;;45.10;24.90;;;2.40;99.90;;;;;;5070511;28;20028;-53
2023/01/25 02:32:12;;;;;;;49.45;24.23;;;2.40;99.90;;;;;;5070302;28;20048;-52
2023/01/25 02:34:58;;;;;;;46.25;24.75;;;2.40;99.90;;;;;;5056234;28;20103;-54
2023/01/25 02:37:45;;;;;;;47.63;24.98;;;2.50;99.90;;;;;;5070058;28;20052;-54
2023/01/25 02:40:39;;;;;;;48.35;25.13;;;2.50;99.90;;;;;;5071817;28;20449;-49
2023/01/25 02:43:28;;;;;;;47.03;24.17;;;2.40;99.90;;;;;;5071422;28;20024;-54
2023/01/25 02:46:26;;;;;;;46.83;25.35;;;2.50;99.90;;;;;;5066889;28;20031;-55
2023/01/25 02:49:13;;;;;;;44.40;26.90;;;2.40;99.90;;;;;;5070047;28;20031;-51
2023/01/25 02:51:59;;;;;;;46.70;24.85;;;2.40;99.90;;;;;;5069830;28;20035;-54
2023/01/25 02:54:45;;;;;;;49.67;25.40;;;2.50;99.90;;;;;;5068476;28;20104;-54
2023/01/25 02:57:31;;;;;;;47.13;25.10;;;2.50;99.90;;;;;;5069953;28;20040;-54
2023/01/25 03:00:17;;;;;;;50.17;25.77;;;2.50;99.90;;;;;;5069098;28;20215;-53
2023/01/25 03:03:03;;;;;;;48.10;24.42;;;2.60;99.90;;;;;;5067505;28;20039;-57
2023/01/25 03:05:49;;;;;;;45.90;24.55;;;2.60;99.90;;;;;;5069065;28;20032;-54
2023/01/25 03:08:35;;;;;;;45.15;25.63;;;2.60;99.90;;;;;;5057881;28;20028;-55
2023/01/25 03:11:21;;;;;;;49.20;25.42;;;2.60;99.90;;;;;;5069067;28;20082;-55
2023/01/25 03:14:07;;;;;;;49.15;26.77;;;2.60;99.90;;;;;;5069766;28;20109;-49
2023/01/25 03:16:53;;;;;;;47.75;27.00;;;2.50;99.90;;;;;;5052938;28;20052;-48
2023/01/25 03:19:39;;;;;;;48.00;25.33;;;2.50;99.90;;;;;;5057556;28;20501;-48
2023/01/25 03:22:25;;;;;;;47.58;26.80;;;2.50;99.90;;;;;;5067234;28;20081;-48
2023/01/25 03:25:11;;;;;;;49.30;25.65;;;2.40;99.90;;;;;;5069236;28;20042;-51
2023/01/25 03:27:56;;;;;;;52.40;26.73;;;2.50;99.90;;;;;;5055468;28;20033;-50
2023/01/25 03:30:42;;;;;;;57.05;30.60;;;2.40;99.90;;;;;;5070641;28;20099;-48
2023/01/25 03:33:28;;;;;;;50.45;27.58;;;2.40;99.90;;;;;;5064328;28;20137;-57
2023/01/25 03:36:14;;;;;;;47.47;27.17;;;2.40;99.90;;;;;;5070324;28;20107;-53
2023/01/25 03:39:00;;;;;;;45.25;25.25;;;2.40;99.90;;;;;;5041367;28;20032;-56
2023/01/25 03:41:46;;;;;;;43.15;24.42;;;2.20;99.90;;;;;;5068992;28;20121;-55
2023/01/25 03:44:32;;;;;;;41.00;23.77;;;2.30;99.90;;;;;;5069718;28;20052;-52
2023/01/25 03:47:18;;;;;;;46.60;25.00;;;2.40;99.90;;;;;;5068913;28;20049;-51
2023/01/25 03:50:04;;;;;;;46.78;24.00;;;2.40;99.90;;;;;;5069836;28;20106;-52
2023/01/25 03:52:57;;;;;;;46.97;25.67;;;2.40;99.90;;;;;;5070221;28;20075;-51
2023/01/25 03:55:43;;;;;;;46.42;25.80;;;2.40;99.90;;;;;;5069114;28;20048;-56
2023/01/25 03:58:30;;;;;;;45.72;25.88;;;2.50;99.90;;;;;;5068507;28;20063;-53
2023/01/25 04:01:16;;;;;;;50.03;27.02;;;2.60;99.90;;;;;;5070897;28;20139;-54
2023/01/25 04:04:03;;;;;;;47.55;26.50;;;2.50;99.90;;;;;;5070217;28;20025;-52
2023/01/25 04:06:49;;;;;;;47.40;27.05;;;2.60;99.90;;;;;;5069969;28;20708;-56
2023/01/25 04:09:34;;;;;;;47.03;24.88;;;2.60;99.90;;;;;;5070511;28;20031;-55
2023/01/25 04:12:20;;;;;;;49.38;27.35;;;2.60;99.90;;;;;;5068540;28;20037;-54
2023/01/25 04:15:07;;;;;;;52.22;27.38;;;2.60;99.90;;;;;;5070353;28;20497;-53
2023/01/25 04:17:53;;;;;;;49.35;26.90;;;2.60;99.90;;;;;;5069370;28;20475;-56
2023/01/25 04:20:39;;;;;;;53.83;27.45;;;2.70;99.90;;;;;;5038113;28;20048;-54
2023/01/25 04:23:25;;;;;;;56.08;28.50;;;2.70;99.90;;;;;;5070445;28;20016;-54
2023/01/25 04:26:13;;;;;;;54.78;28.35;;;2.70;99.90;;;;;;5072907;28;20029;-55
2023/01/25 04:28:59;;;;;;;48.67;26.08;;;2.70;99.90;;;;;;5074505;28;20442;-54
2023/01/25 04:31:45;;;;;;;45.55;26.42;;;2.70;99.90;;;;;;5073191;28;20029;-52
2023/01/25 04:34:31;;;;;;;50.92;29.08;;;2.70;99.90;;;;;;5062915;28;20044;-52
2023/01/25 04:37:16;;;;;;;58.67;28.88;;;2.70;99.90;;;;;;5072793;28;20563;-51
2023/01/25 04:40:03;;;;;;;50.00;28.02;;;2.80;99.90;;;;;;5071207;28;20501;-52
2023/01/25 04:42:49;;;;;;;48.72;26.80;;;2.70;99.90;;;;;;5070162;28;20497;-52
2023/01/25 04:45:35;;;;;;;44.05;24.45;;;2.70;99.90;;;;;;5073062;28;20043;-55
2023/01/25 04:48:21;;;;;;;50.10;27.27;;;2.70;99.90;;;;;;5061374;28;20033;-55
2023/01/25 04:51:08;;;;;;;46.45;25.33;;;2.60;99.90;;;;;;5068124;28;20519;-57
2023/01/25 04:53:54;;;;;;;48.53;25.35;;;2.60;99.90;;;;;;5066287;28;20082;-57
2023/01/25 04:56:40;;;;;;;47.70;25.50;;;2.50;99.90;;;;;;5070917;28;20036;-58
2023/01/25 04:59:26;;;;;;;51.55;30.10;;;2.50;99.90;;;;;;5071181;28;20060;-57
2023/01/25 05:02:11;;;;;;;47.45;24.95;;;2.50;99.90;;;;;;5063318;28;20035;-58
2023/01/25 05:04:58;;;;;;;49.45;26.00;;;2.50;99.90;;;;;;5071432;28;20029;-56
2023/01/25 05:07:44;;;;;;;49.50;27.85;;;2.50;99.90;;;;;;5072300;28;20024;-55
2023/01/25 05:10:29;;;;;;;54.03;30.75;;;2.50;99.90;;;;;;5071437;28;20075;-54
2023/01/25 05:13:15;;;;;;;56.83;28.90;;;2.50;99.90;;;;;;5070702;28;20505;-56
2023/01/25 05:16:01;;;;;;;46.63;26.05;;;2.50;99.90;;;;;;5071167;28;20030;-56
2023/01/25 05:18:47;;;;;;;59.97;32.70;;;2.60;99.90;;;;;;5056394;28;20036;-54
2023/01/25 05:24:40;;;;;;;46.17;25.63;;;2.60;99.90;;;;;;5062343;28;20492;-55
2023/01/25 05:27:26;;;;;;;45.55;23.05;;;2.50;99.90;;;;;;5065191;28;20032;-56
2023/01/25 05:30:12;;;;;;;43.83;21.63;;;2.30;99.90;;;;;;5071741;28;20112;-55
2023/01/25 05:32:58;;;;;;;44.22;24.85;;;2.30;99.90;;;;;;5071582;28;20519;-55
2023/01/25 05:35:44;;;;;;;44.08;22.27;;;2.20;99.90;;;;;;5070331;28;20104;-51
2023/01/25 05:38:30;;;;;;;45.97;23.85;;;2.10;99.90;;;;;;5071093;28;20108;-58
2023/01/25 05:41:16;;;;;;;49.53;25.55;;;2.20;99.90;;;;;;5070705;28;20116;-59
2023/01/25 05:44:02;;;;;;;51.17;24.00;;;2.30;99.90;;;;;;5064734;28;20032;-56
2023/01/25 05:46:49;;;;;;;56.20;27.35;;;2.30;99.90;;;;;;5070008;28;20025;-57
2023/01/25 05:49:34;;;;;;;46.58;25.90;;;2.40;99.90;;;;;;5071475;28;20071;-56
2023/01/25 05:52:20;;;;;;;51.80;26.10;;;2.50;99.90;;;;;;5071338;28;20056;-57
2023/01/25 05:55:07;;;;;;;52.60;24.98;;;2.50;99.90;;;;;;5052700;28;20110;-56
2023/01/25 05:57:56;;;;;;;41.30;24.58;;;2.50;99.90;;;;;;5053725;28;20072;-56
2023/01/25 06:00:42;;;;;;;46.83;24.65;;;2.50;99.90;;;;;;5069344;28;20045;-57
2023/01/25 06:03:28;;;;;;;46.22;24.90;;;2.50;99.90;;;;;;5070914;28;20021;-57
2023/01/25 06:06:14;;;;;;;47.08;25.38;;;2.50;99.90;;;;;;5070109;28;20550;-56
2023/01/25 06:09:01;;;;;;;46.33;24.27;;;2.40;99.90;;;;;;5070316;28;20098;-55
2023/01/25 06:11:47;;;;;;;51.45;25.02;;;2.20;99.90;;;;;;5071159;28;20497;-55
2023/01/25 06:14:33;;;;;;;48.25;25.15;;;2.30;99.90;;;;;;5071722;28;20412;-57
2023/01/25 06:17:19;;;;;;;45.65;24.77;;;2.40;99.90;;;;;;5055981;28;20069;-58
2023/01/25 06:20:05;;;;;;;49.05;26.55;;;2.40;99.90;;;;;;5069359;28;20511;-54
2023/01/25 06:22:51;;;;;;;45.47;25.27;;;2.40;99.90;;;;;;5071467;28;20075;-57
2023/01/25 06:25:37;;;;;;;47.33;25.63;;;2.40;99.90;;;;;;5067607;28;20473;-59
2023/01/25 06:28:23;;;;;;;46.22;24.77;;;2.40;99.90;;;;;;5069827;28;20028;-59
2023/01/25 06:31:12;;;;;;;47.40;24.35;;;2.40;99.90;;;;;;5071304;28;20052;-58
2023/01/25 06:33:59;;;;;;;45.65;22.85;;;2.20;99.90;;;;;;5070075;28;20017;-53
2023/01/25 06:36:47;;;;;;;46.53;24.80;;;2.20;99.90;;;;;;5070421;28;20025;-55
2023/01/25 06:39:33;;;;;;;44.97;23.13;;;2.10;99.90;;;;;;5036767;28;20033;-57
2023/01/25 06:42:19;;;;;;;47.28;24.08;;;2.10;99.90;;;;;;5041177;28;20028;-53
2023/01/25 06:45:05;;;;;;;43.03;23.38;;;2.20;99.90;;;;;;5070158;28;20028;-52
2023/01/25 06:47:51;;;;;;;44.05;22.85;;;2.30;99.90;;;;;;5070054;28;20079;-57
2023/01/25 06:50:37;;;;;;;46.33;24.58;;;2.20;99.90;;;;;;5036289;28;20033;-53
2023/01/25 06:53:25;;;;;;;48.20;24.58;;;2.30;99.90;;;;;;5059876;28;20601;-55
2023/01/25 06:56:20;;;;;;;50.33;24.80;;;2.20;99.90;;;;;;5070062;28;20043;-57
2023/01/25 06:59:06;;;;;;;46.47;24.02;;;2.20;99.90;;;;;;5070120;28;20037;-58
2023/01/25 07:01:52;;;;;;;48.05;26.00;;;2.20;99.90;;;;;;5069155;28;20412;-57
2023/01/25 07:04:38;;;;;;;45.70;24.45;;;2.20;99.90;;;;;;5061301;28;20390;-55
2023/01/25 07:07:24;;;;;;;51.40;26.50;;;2.20;99.90;;;;;;5054884;28;20484;-57
2023/01/25 07:10:10;;;;;;;49.30;26.42;;;2.20;99.90;;;;;;5069651;28;20124;-54
2023/01/25 07:12:56;;;;;;;51.03;26.08;;;2.20;99.90;;;;;;5068564;28;20033;-55
2023/01/25 07:15:42;;;;;;;49.15;25.38;;;2.20;99.90;;;;;;5054326;28;20048;-54
2023/01/25 07:18:30;;;;;;;42.90;22.15;;;2.20;99.90;;;;;;5069487;28;20048;-53
2023/01/25 07:21:21;;;;;;;43.88;23.35;;;2.00;99.90;;;;;;5070750;28;20451;-56
2023/01/25 07:24:13;;;;;;;43.70;23.13;;;2.10;99.90;;;;;;5069210;28;20500;-55
2023/01/25 07:26:59;;;;;;;39.22;22.83;;;2.10;99.90;;;;;;5065674;28;20471;-52
2023/01/25 07:29:45;;;;;;;44.83;22.58;;;2.10;99.90;;;;;;5069589;28;20115;-57
2023/01/25 07:32:31;;;;;;;45.13;23.40;;;2.20;99.90;;;;;;5055826;28;20039;-58
2023/01/25 07:35:17;;;;;;;42.30;23.73;;;2.20;99.90;;;;;;5069630;28;20056;-54
2023/01/25 07:38:03;;;;;;;41.80;22.65;;;2.20;99.90;;;;;;5070554;28;20028;-54
2023/01/25 07:40:52;;;;;;;37.15;21.45;;;2.20;99.90;;;;;;5067215;28;20036;-56
2023/01/25 07:43:38;;;;;;;41.58;21.60;;;2.20;99.90;;;;;;5076367;28;20039;-55
2023/01/25 07:46:24;;;;;;;43.83;22.02;;;2.30;99.90;;;;;;5055745;28;20060;-62
2023/01/25 07:49:10;;;;;;;45.08;23.52;;;2.40;99.90;;;;;;5075650;28;20036;-55
2023/01/25 07:51:57;;;;;;;44.95;24.92;;;2.40;99.90;;;;;;5063175;28;20024;-53
2023/01/25 07:54:45;;;;;;;42.95;24.10;;;2.50;99.90;;;;;;5055349;28;20032;-50
2023/01/25 07:57:31;;;;;;;47.03;25.30;;;2.50;99.90;;;;;;5070625;28;20037;-53
2023/01/25 08:00:17;;;;;;;52.00;24.48;;;2.50;99.90;;;;;;5072753;28;20021;-51
2023/01/25 08:03:03;;;;;;;49.58;26.98;;;2.50;99.90;;;;;;5075008;28;20500;-55
2023/01/25 08:05:49;;;;;;;53.97;26.10;;;2.40;99.90;;;;;;5073603;28;20032;-56
2023/01/25 08:08:40;;;;;;;51.03;27.25;;;2.20;99.90;;;;;;5077708;28;20060;-49
2023/01/25 08:11:29;;;;;;;57.50;28.73;;;2.20;99.90;;;;;;5064438;28;20485;-50
2023/01/25 08:14:15;;;;;;;46.90;25.90;;;2.20;99.90;;;;;;5083279;28;20024;-49
2023/01/25 08:17:01;;;;;;;55.35;27.15;;;2.20;99.90;;;;;;5084697;28;20037;-49
2023/01/25 08:19:47;;;;;;;53.95;28.70;;;2.20;99.90;;;;;;5084716;28;20492;-49
2023/01/25 08:22:33;;;;;;;51.00;27.10;;;2.20;99.90;;;;;;5058828;28;20488;-48
2023/01/25 08:25:19;;;;;;;52.17;27.00;;;2.30;99.90;;;;;;5071983;28;20114;-53
2023/01/25 08:28:06;;;;;;;59.90;27.75;;;2.30;99.90;;;;;;5073549;28;20040;-49
2023/01/25 08:30:52;;;;;;;56.67;26.98;;;2.30;99.90;;;;;;5073576;28;20029;-52
2023/01/25 08:33:39;;;;;;;59.17;27.23;;;2.30;99.90;;;;;;5072187;28;20033;-52
2023/01/25 08:36:26;;;;;;;50.63;26.50;;;2.20;99.90;;;;;;5071527;28;20504;-49
2023/01/25 08:39:12;;;;;;;50.58;26.25;;;2.30;99.90;;;;;;5072660;28;20032;-54
2023/01/25 08:41:59;;;;;;;53.35;27.63;;;2.40;99.90;;;;;;5072672;28;20032;-51
2023/01/25 08:44:44;;;;;;;79.95;48.80;;;2.40;99.90;;;;;;5063434;28;20134;-55
2023/01/25 08:47:30;;;;;;;73.65;45.33;;;2.40;99.90;;;;;;5072333;28;20451;-54
2023/01/25 08:50:16;;;;;;;50.75;28.60;;;2.50;99.90;;;;;;5072201;28;20028;-55
2023/01/25 08:53:02;;;;;;;51.80;26.08;;;2.60;99.90;;;;;;5072902;28;20036;-52
2023/01/25 08:55:48;;;;;;;46.85;26.70;;;2.50;99.90;;;;;;5071330;28;20479;-54
2023/01/25 08:58:39;;;;;;;55.33;32.28;;;2.50;99.90;;;;;;5073536;28;20020;-51
2023/01/25 09:01:25;;;;;;;51.00;28.92;;;2.50;99.90;;;;;;5074313;28;20032;-51
2023/01/25 09:04:11;;;;;;;50.00;27.02;;;2.50;99.90;;;;;;5079233;28;20028;-55
2023/01/25 09:06:57;;;;;;;51.83;27.38;;;2.50;99.90;;;;;;5076746;28;20055;-49
2023/01/25 09:09:43;;;;;;;59.25;26.65;;;2.50;99.90;;;;;;5076928;28;20029;-53
2023/01/25 09:12:30;;;;;;;53.35;28.17;;;2.50;99.90;;;;;;5076793;28;20108;-54
2023/01/25 09:15:16;;;;;;;47.28;27.25;;;2.60;99.90;;;;;;5061741;28;20040;-53
2023/01/25 09:18:02;;;;;;;46.72;26.05;;;2.50;99.90;;;;;;5072978;28;20077;-50
2023/01/25 09:20:48;;;;;;;43.97;24.77;;;2.60;99.90;;;;;;5071345;28;20124;-50
2023/01/25 09:23:34;;;;;;;46.00;24.40;;;2.60;99.90;;;;;;5071702;28;20024;-50
2023/01/25 09:26:20;;;;;;;44.33;24.60;;;2.40;99.90;;;;;;5071294;28;20021;-52
2023/01/25 09:29:07;;;;;;;51.60;25.50;;;2.30;99.90;;;;;;5072186;28;20398;-50
2023/01/25 09:31:53;;;;;;;45.70;26.42;;;2.30;99.90;;;;;;5073010;28;20060;-54
2023/01/25 09:34:40;;;;;;;45.00;24.30;;;2.40;99.90;;;;;;5071833;28;20039;-52
2023/01/25 09:37:26;;;;;;;44.42;23.48;;;2.30;99.90;;;;;;5071970;28;20032;-53
2023/01/25 09:40:20;;;;;;;40.83;22.70;;;2.20;99.90;;;;;;5070741;28;20032;-53
2023/01/25 09:43:31;;;;;;;39.83;23.33;;;2.20;99.90;;;;;;5071979;28;20017;-51
2023/01/25 09:46:24;;;;;;;38.20;21.08;;;2.20;99.90;;;;;;5070808;28;20497;-50
2023/01/25 09:49:25;;;;;;;38.20;22.20;;;2.20;99.90;;;;;;5057155;28;20496;-53
2023/01/25 09:52:46;;;;;;;38.33;21.08;;;2.10;99.90;;;;;;5072450;28;20386;-53
2023/01/25 09:55:32;;;;;;;42.70;23.48;;;2.00;99.90;;;;;;5069701;28;20040;-49
2023/01/25 09:58:55;;;;;;;40.33;22.70;;;2.00;99.90;;;;;;5071023;28;20056;-49
2023/01/25 10:01:49;;;;;;;42.70;24.02;;;2.10;99.90;;;;;;5010049;28;20029;-52
2023/01/25 10:04:41;;;;;;;43.00;24.15;;;2.10;99.90;;;;;;5071456;28;20780;-48
2023/01/25 10:07:40;;;;;;;37.17;22.15;;;2.20;99.90;;;;;;5070197;28;20469;-50
2023/01/25 10:10:38;;;;;;;40.60;22.45;;;2.10;99.90;;;;;;5073023;28;20085;-50
2023/01/25 10:13:30;;;;;;;39.25;21.45;;;2.00;99.90;;;;;;5071783;28;20021;-49
2023/01/25 10:16:36;;;;;;;36.78;21.10;;;2.10;99.90;;;;;;5070096;28;20027;-48
2023/01/25 10:19:44;;;;;;;32.60;19.35;;;2.00;99.90;;;;;;5048621;28;20036;-48
2023/01/25 10:22:39;;;;;;;34.28;20.23;;;2.00;99.90;;;;;;5070288;28;20389;-50
2023/01/25 10:25:34;;;;;;;37.83;19.58;;;2.00;99.90;;;;;;5070468;28;20048;-50
2023/01/25 10:28:45;;;;;;;37.20;20.65;;;2.00;99.90;;;;;;5070883;28;20103;-52
2023/01/25 10:31:52;;;;;;;38.40;19.30;;;1.90;99.90;;;;;;5050764;28;20142;-51
2023/01/25 10:34:45;;;;;;;40.88;22.52;;;1.90;99.90;;;;;;5068997;28;20021;-49
2023/01/25 10:37:33;;;;;;;42.05;21.15;;;1.70;99.90;;;;;;5069966;28;20154;-47
2023/01/25 10:40:25;;;;;;;36.05;20.65;;;1.80;99.90;;;;;;5070472;28;20066;-52
2023/01/25 10:43:17;;;;;;;39.25;20.70;;;1.90;99.90;;;;;;5070252;28;20020;-50
2023/01/25 10:46:18;;;;;;;39.92;21.88;;;2.00;99.90;;;;;;5069511;28;20077;-52
2023/01/25 10:49:19;;;;;;;40.05;20.40;;;2.10;99.90;;;;;;5070526;28;20028;-54
2023/01/25 10:52:26;;;;;;;41.45;23.15;;;2.00;99.90;;;;;;5069327;28;20439;-52
2023/01/25 10:55:17;;;;;;;47.72;23.92;;;2.00;99.90;;;;;;5068849;28;20040;-54
2023/01/25 10:58:03;;;;;;;46.22;23.80;;;2.10;99.90;;;;;;5070538;28;20036;-49
2023/01/25 11:00:50;;;;;;;49.92;25.75;;;2.00;99.90;;;;;;5056179;28;20043;-48
2023/01/25 11:03:45;;;;;;;41.78;23.60;;;1.90;99.90;;;;;;5070341;28;20060;-56
2023/01/25 11:06:45;;;;;;;45.15;23.38;;;1.90;99.90;;;;;;5070142;28;20386;-54
2023/01/25 11:09:37;;;;;;;43.20;23.20;;;2.10;99.90;;;;;;5071520;28;20115;-58
2023/01/25 11:12:23;;;;;;;38.45;22.30;;;2.00;99.90;;;;;;5071354;28;20443;-56
2023/01/25 11:15:30;;;;;;;45.65;22.77;;;2.00;99.90;;;;;;5073066;28;20036;-57
2023/01/25 11:18:27;;;;;;;35.00;19.70;;;2.10;99.90;;;;;;5062093;28;20370;-56
2023/01/25 11:21:24;;;;;;;42.85;20.98;;;2.10;99.90;;;;;;5071016;28;20406;-55
2023/01/25 11:24:09;;;;;;;38.58;20.88;;;2.10;99.90;;;;;;5055743;28;20095;-56
2023/01/25 11:27:31;;;;;;;37.58;19.90;;;2.00;99.90;;;;;;5064927;28;20017;-57
2023/01/25 11:30:20;;;;;;;35.30;20.25;;;2.00;99.90;;;;;;4971610;28;20030;-55
2023/01/25 11:33:18;;;;;;;36.65;19.30;;;1.90;99.90;;;;;;5041689;28;20159;-56
2023/01/25 11:36:24;;;;;;;36.15;19.40;;;2.10;99.90;;;;;;5049927;28;20501;-52
2023/01/25 11:39:45;;;;;;;33.72;18.40;;;2.00;99.90;;;;;;5047311;28;20045;-52
2023/01/25 11:43:00;;;;;;;39.05;22.23;;;2.10;99.90;;;;;;5067376;28;20086;-53
2023/01/25 11:45:54;;;;;;;38.53;18.55;;;2.00;99.90;;;;;;5068666;28;20025;-54
2023/01/25 11:48:46;;;;;;;30.98;17.75;;;2.00;99.90;;;;;;5068784;28;20021;-55
2023/01/25 11:51:53;;;;;;;34.35;18.80;;;2.00;99.90;;;;;;5067649;28;20021;-54
2023/01/25 11:55:18;;;;;;;32.58;18.77;;;2.00;99.90;;;;;;5068612;28;20112;-48
2023/01/25 11:58:16;;;;;;;35.40;18.30;;;2.00;99.90;;;;;;5068185;28;20032;-54
2023/01/25 12:01:07;;;;;;;38.03;18.77;;;1.80;99.90;;;;;;5069381;28;20056;-50
2023/01/25 12:04:25;;;;;;;36.83;19.00;;;1.90;99.90;;;;;;5069611;28;20017;-54
2023/01/25 12:07:16;;;;;;;37.20;19.30;;;1.90;99.90;;;;;;5069374;28;20052;-53
2023/01/25 12:10:35;;;;;;;34.90;18.40;;;1.90;99.90;;;;;;5069614;28;20496;-56
2023/01/25 12:13:39;;;;;;;40.67;19.95;;;1.80;99.90;;;;;;5036274;28;20041;-50
2023/01/25 12:16:37;;;;;;;38.45;19.25;;;1.90;99.90;;;;;;5067961;28;20108;-51
2023/01/25 12:20:00;;;;;;;37.05;20.73;;;1.60;99.90;;;;;;5069454;28;20024;-54
2023/01/25 12:23:23;;;;;;;36.10;19.35;;;1.70;99.90;;;;;;5071010;28;20044;-53
2023/01/25 12:26:28;;;;;;;38.10;19.27;;;1.60;99.90;;;;;;5070597;28;20029;-50
2023/01/25 12:29:20;;;;;;;41.92;23.25;;;1.70;99.90;;;;;;5070086;28;20404;-54
2023/01/25 12:32:24;;;;;;;38.47;21.38;;;1.70;99.90;;;;;;5069769;28;20052;-55
2023/01/25 12:35:22;;;;;;;42.20;20.55;;;1.80;99.90;;;;;;5067992;28;20052;-56
2023/01/25 12:38:34;;;;;;;43.03;20.10;;;1.90;99.90;;;;;;5069475;28;20024;-52
2023/01/25 12:41:32;;;;;;;37.80;19.58;;;2.00;99.90;;;;;;5069511;28;20112;-56
2023/01/25 12:44:40;;;;;;;37.90;19.67;;;1.90;99.90;;;;;;5069778;28;20016;-55
2023/01/25 12:47:36;;;;;;;36.60;19.80;;;2.00;99.90;;;;;;5073028;28;20077;-54
2023/01/25 12:50:24;;;;;;;40.15;19.73;;;1.90;99.90;;;;;;5072615;28;20029;-51
2023/01/25 12:53:38;;;;;;;42.13;21.20;;;1.90;99.90;;;;;;5072513;28;20029;-52
2023/01/25 12:56:52;;;;;;;39.88;20.65;;;1.70;99.90;;;;;;5072681;28;20036;-52
2023/01/25 13:00:06;;;;;;;37.92;21.17;;;1.70;99.90;;;;;;5072537;28;20025;-52
2023/01/25 13:02:52;;;;;;;39.42;19.70;;;1.70;99.90;;;;;;5046375;28;20109;-52
2023/01/25 13:05:49;;;;;;;42.33;23.48;;;1.70;99.90;;;;;;5056829;28;20013;-48
2023/01/25 13:09:00;;;;;;;50.97;25.48;;;1.70;99.90;;;;;;5071843;28;20103;-53
2023/01/25 13:11:47;;;;;;;42.13;23.10;;;1.90;99.90;;;;;;5072186;28;20024;-53
2023/01/25 13:14:38;;;;;;;41.00;21.40;;;1.90;99.90;;;;;;5072418;28;20120;-51
2023/01/25 13:17:37;;;;;;;46.17;24.27;;;1.80;99.90;;;;;;5072309;28;20111;-53
2023/01/25 13:20:41;;;;;;;46.25;24.73;;;1.90;99.90;;;;;;5075002;28;20034;-54
2023/01/25 13:23:49;;;;;;;42.25;22.95;;;2.20;99.90;;;;;;5072293;28;20016;-51
2023/01/25 13:26:53;;;;;;;40.15;23.20;;;2.30;99.90;;;;;;5072047;28;20123;-53
2023/01/25 13:29:44;;;;;;;41.05;22.92;;;2.50;99.90;;;;;;5071929;28;20024;-54
2023/01/25 13:32:30;;;;;;;45.10;24.25;;;2.50;99.90;;;;;;5073994;28;20697;-52
2023/01/25 13:35:38;;;;;;;43.33;23.45;;;2.40;99.90;;;;;;5071069;28;20069;-54
2023/01/25 13:38:34;;;;;;;42.58;22.27;;;2.30;99.90;;;;;;5071930;28;20020;-48
2023/01/25 13:41:21;;;;;;;40.67;21.02;;;2.10;99.90;;;;;;5070633;28;20121;-50
2023/01/25 13:44:27;;;;;;;41.55;21.67;;;2.10;99.90;;;;;;5071596;28;20388;-52
2023/01/25 13:47:16;;;;;;;44.05;22.50;;;1.90;99.90;;;;;;5071097;28;20489;-50
2023/01/25 13:50:24;;;;;;;44.58;23.45;;;1.80;99.90;;;;;;5071541;28;20024;-49
2023/01/25 13:53:17;;;;;;;40.08;21.35;;;1.90;99.90;;;;;;5071707;28;20108;-53
2023/01/25 13:56:04;;;;;;;41.35;21.20;;;1.90;99.90;;;;;;5055416;28;20102;-55
2023/01/25 13:58:49;;;;;;;39.75;21.27;;;1.90;99.90;;;;;;5071532;28;20025;-50
2023/01/25 14:01:36;;;;;;;45.75;25.20;;;2.00;99.90;;;;;;5070252;28;20108;-52
2023/01/25 14:04:22;;;;;;;47.25;25.83;;;2.10;99.90;;;;;;5071886;28;20115;-52
2023/01/25 14:07:14;;;;;;;59.20;28.77;;;2.00;99.90;;;;;;5070953;28;20039;-51
2023/01/25 14:10:06;;;;;;;61.88;29.35;;;1.90;99.90;;;;;;5070730;28;20118;-51
2023/01/25 14:12:58;;;;;;;54.05;27.60;;;1.90;99.90;;;;;;5071195;28;20024;-49
2023/01/25 14:15:56;;;;;;;52.20;26.75;;;1.90;99.90;;;;;;5070724;28;20111;-53
2023/01/25 14:18:44;;;;;;;53.28;27.38;;;1.90;99.90;;;;;;5071929;28;20516;-55
2023/01/25 14:21:29;;;;;;;45.88;24.60;;;1.90;99.90;;;;;;5071585;28;20078;-52
2023/01/25 14:24:18;;;;;;;46.25;25.17;;;2.00;99.90;;;;;;5072162;28;20024;-53
2023/01/25 14:27:05;;;;;;;47.25;25.45;;;1.90;99.90;;;;;;5056148;28;20497;-52
2023/01/25 14:29:51;;;;;;;47.97;28.40;;;1.90;99.90;;;;;;5070966;28;20047;-49
2023/01/25 14:32:40;;;;;;;46.10;27.55;;;1.90;99.90;;;;;;5070769;28;20435;-50
2023/01/25 14:35:29;;;;;;;50.38;28.45;;;2.00;99.90;;;;;;5070990;28;20024;-53
2023/01/25 14:38:29;;;;;;;49.78;28.13;;;2.10;99.90;;;;;;5070341;28;20025;-53